Time;durP1;ratioP1;P1;durP2;ratioP2;P2;SDS_P1;SDS_P2;PMS_P1;PMS_P2;Temp;Humidity;BMP_temperature;BMP_pressure;BME280_temperature;BME280_humidity;BME280_pressure;Samples;Min_cycle;Max_cycle;Signal;HPM_P1;HPM_P2
2023/04/23 00:00:15;;;;;;;37.20;31.83;;;;;;;;;;5245954;28;20021;-75
2023/04/23 00:02:48;;;;;;;35.57;30.00;;;;;;;;;;5230859;28;20444;-75
2023/04/23 00:05:19;;;;;;;38.40;31.33;;;;;;;;;;5229009;28;20025;-75
2023/04/23 00:07:50;;;;;;;32.97;29.17;;;;;;;;;;5230941;28;20021;-75
2023/04/23 00:10:22;;;;;;;32.70;29.20;;;;;;;;;;5230418;28;20056;-76
2023/04/23 00:12:53;;;;;;;31.60;27.90;;;;;;;;;;5239850;28;20033;-75
2023/04/23 00:15:25;;;;;;;32.53;28.30;;;;;;;;;;5236508;28;20018;-75
2023/04/23 00:17:56;;;;;;;33.77;30.17;;;;;;;;;;5230939;28;20017;-75
2023/04/23 00:20:27;;;;;;;33.30;29.80;;;;;;;;;;5229951;28;20021;-76
2023/04/23 00:22:58;;;;;;;31.53;28.23;;;;;;;;;;5230590;28;20025;-75
2023/04/23 00:25:30;;;;;;;32.60;28.93;;;;;;;;;;5229927;28;20022;-74
2023/04/23 00:28:01;;;;;;;30.77;27.13;;;;;;;;;;5228393;28;20018;-75
2023/04/23 00:30:32;;;;;;;35.13;27.10;;;;;;;;;;5229090;28;20400;-75
2023/04/23 00:33:04;;;;;;;29.60;25.93;;;;;;;;;;5230244;28;20476;-75
2023/04/23 00:35:35;;;;;;;29.90;26.73;;;;;;;;;;5230365;28;20028;-75
2023/04/23 00:38:06;;;;;;;30.87;25.70;;;;;;;;;;5230386;28;20013;-75
2023/04/23 00:40:37;;;;;;;30.43;25.73;;;;;;;;;;5229127;28;20013;-75
2023/04/23 00:43:10;;;;;;;28.63;25.67;;;;;;;;;;5230358;28;20368;-75
2023/04/23 00:45:41;;;;;;;29.77;26.07;;;;;;;;;;5230136;28;20036;-75
2023/04/23 00:48:13;;;;;;;28.73;25.73;;;;;;;;;;5230060;28;20021;-74
2023/04/23 00:50:45;;;;;;;30.33;25.67;;;;;;;;;;5237348;28;20065;-75
2023/04/23 00:53:16;;;;;;;29.20;26.03;;;;;;;;;;5229393;28;20056;-75
2023/04/23 00:55:47;;;;;;;26.93;23.90;;;;;;;;;;5229743;28;20046;-75
2023/04/23 00:58:18;;;;;;;29.03;25.90;;;;;;;;;;5229643;28;20083;-75
2023/04/23 01:00:51;;;;;;;28.67;24.87;;;;;;;;;;5228777;28;20013;-75
2023/04/23 01:03:23;;;;;;;28.87;25.77;;;;;;;;;;5229644;28;20032;-74
2023/04/23 01:05:54;;;;;;;27.43;24.47;;;;;;;;;;5229657;28;20021;-74
2023/04/23 01:08:25;;;;;;;25.90;23.10;;;;;;;;;;5229876;28;20037;-75
2023/04/23 01:10:56;;;;;;;28.37;25.27;;;;;;;;;;5232665;28;20136;-75
2023/04/23 01:13:29;;;;;;;28.50;25.43;;;;;;;;;;5230033;28;20381;-75
2023/04/23 01:16:00;;;;;;;27.37;24.27;;;;;;;;;;5233681;28;20081;-75
2023/04/23 01:18:33;;;;;;;28.53;25.23;;;;;;;;;;5232835;28;20023;-75
2023/04/23 01:21:04;;;;;;;27.37;24.40;;;;;;;;;;5233400;28;20045;-76
2023/04/23 01:23:35;;;;;;;28.97;24.93;;;;;;;;;;5318074;27;20226;-75
2023/04/23 01:26:07;;;;;;;27.57;23.53;;;;;;;;;;5233391;27;20016;-75
2023/04/23 01:28:38;;;;;;;27.27;24.37;;;;;;;;;;5233085;28;20025;-75
2023/04/23 01:31:10;;;;;;;27.47;24.57;;;;;;;;;;5232401;28;20021;-75
2023/04/23 01:33:42;;;;;;;27.13;24.23;;;;;;;;;;5231479;28;20030;-75
2023/04/23 01:36:13;;;;;;;27.10;22.43;;;;;;;;;;5230885;28;20093;-75
2023/04/23 01:38:44;;;;;;;26.30;23.60;;;;;;;;;;5231512;28;20391;-76
2023/04/23 01:41:16;;;;;;;25.70;22.83;;;;;;;;;;5230705;28;20021;-75
2023/04/23 01:43:47;;;;;;;26.43;23.73;;;;;;;;;;5232696;28;20378;-75
2023/04/23 01:46:19;;;;;;;28.90;22.80;;;;;;;;;;5232076;28;20017;-75
2023/04/23 01:48:50;;;;;;;28.93;23.13;;;;;;;;;;5232501;28;20844;-75
2023/04/23 01:51:24;;;;;;;24.63;22.03;;;;;;;;;;5232556;28;20026;-75
2023/04/23 01:53:55;;;;;;;29.53;23.13;;;;;;;;;;5232744;28;20070;-76
2023/04/23 01:56:27;;;;;;;28.67;23.07;;;;;;;;;;5231675;28;20740;-75
2023/04/23 01:58:58;;;;;;;23.73;21.13;;;;;;;;;;5232407;28;20062;-76
2023/04/23 02:01:42;;;;;;;23.70;21.30;;;;;;;;;;5232920;28;20025;-75
2023/04/23 02:04:15;;;;;;;24.02;21.50;;;;;;;;;;5230642;28;20629;-75
2023/04/23 02:06:47;;;;;;;23.27;20.97;;;;;;;;;;5233255;28;20041;-75
2023/04/23 02:09:18;;;;;;;24.63;20.20;;;;;;;;;;5230894;28;20057;-74
2023/04/23 02:11:50;;;;;;;23.73;21.23;;;;;;;;;;5232051;28;20048;-75
2023/04/23 02:14:21;;;;;;;22.87;20.57;;;;;;;;;;5232429;28;20086;-75
2023/04/23 02:16:52;;;;;;;24.53;22.00;;;;;;;;;;5232423;28;20058;-75
2023/04/23 02:19:24;;;;;;;21.73;19.53;;;;;;;;;;5232188;28;20024;-75
2023/04/23 02:21:55;;;;;;;24.07;19.97;;;;;;;;;;5232687;28;20078;-75
2023/04/23 02:24:26;;;;;;;22.73;20.43;;;;;;;;;;5231962;28;20520;-75
2023/04/23 02:26:57;;;;;;;23.70;20.27;;;;;;;;;;5230862;28;20121;-75
2023/04/23 02:29:29;;;;;;;22.93;20.53;;;;;;;;;;5232022;28;20026;-75
2023/04/23 02:32:00;;;;;;;21.63;19.27;;;;;;;;;;5232196;28;20025;-75
2023/04/23 02:34:31;;;;;;;20.13;18.10;;;;;;;;;;5234983;28;20560;-74
2023/04/23 02:37:03;;;;;;;22.27;19.73;;;;;;;;;;5252771;28;20021;-74
2023/04/23 02:39:35;;;;;;;21.13;18.97;;;;;;;;;;5251028;28;20036;-74
2023/04/23 02:42:06;;;;;;;21.20;19.10;;;;;;;;;;5252086;28;20403;-74
2023/04/23 02:44:37;;;;;;;21.87;19.57;;;;;;;;;;5252783;28;20040;-74
2023/04/23 02:47:09;;;;;;;19.80;17.70;;;;;;;;;;5251435;28;20073;-75
2023/04/23 02:49:40;;;;;;;21.83;19.00;;;;;;;;;;5252166;28;20553;-76
2023/04/23 02:52:11;;;;;;;20.77;18.30;;;;;;;;;;5250861;28;20017;-76
2023/04/23 02:54:42;;;;;;;19.30;17.37;;;;;;;;;;5232700;28;20045;-76
2023/04/23 02:57:15;;;;;;;21.10;18.33;;;;;;;;;;5230476;28;20018;-76
2023/04/23 02:59:46;;;;;;;20.67;18.57;;;;;;;;;;5232456;28;20026;-76
2023/04/23 03:02:17;;;;;;;19.27;17.03;;;;;;;;;;5231212;28;20457;-76
2023/04/23 03:04:48;;;;;;;19.20;17.23;;;;;;;;;;5231829;28;20460;-76
2023/04/23 03:07:20;;;;;;;20.63;17.60;;;;;;;;;;5231203;28;20045;-76
2023/04/23 03:09:51;;;;;;;19.63;17.73;;;;;;;;;;5231721;28;20102;-76
2023/04/23 03:12:23;;;;;;;21.83;19.50;;;;;;;;;;5230509;28;20127;-76
2023/04/23 03:14:54;;;;;;;19.37;17.20;;;;;;;;;;5230676;28;20489;-75
2023/04/23 03:17:25;;;;;;;19.67;17.67;;;;;;;;;;5229537;28;20529;-75
2023/04/23 03:19:56;;;;;;;18.63;16.70;;;;;;;;;;5231889;28;20025;-75
2023/04/23 03:22:28;;;;;;;21.53;18.10;;;;;;;;;;5229857;28;20477;-75
2023/04/23 03:24:59;;;;;;;19.33;17.07;;;;;;;;;;5231703;28;20030;-76
2023/04/23 03:27:30;;;;;;;19.30;17.30;;;;;;;;;;5229293;28;20058;-76
2023/04/23 03:30:02;;;;;;;22.63;18.70;;;;;;;;;;5231377;28;20049;-76
2023/04/23 03:32:33;;;;;;;21.20;18.27;;;;;;;;;;5230535;28;20100;-75
2023/04/23 03:35:04;;;;;;;20.17;18.00;;;;;;;;;;5230911;28;20132;-76
2023/04/23 03:37:36;;;;;;;22.00;18.80;;;;;;;;;;5231061;28;20021;-76
2023/04/23 03:40:08;;;;;;;20.67;18.47;;;;;;;;;;5230594;28;20082;-76
2023/04/23 03:42:39;;;;;;;19.17;17.27;;;;;;;;;;5230513;28;20032;-76
2023/04/23 03:45:12;;;;;;;20.07;17.90;;;;;;;;;;5230973;28;20498;-76
2023/04/23 03:47:43;;;;;;;20.07;17.83;;;;;;;;;;5229568;28;20049;-76
2023/04/23 03:50:16;;;;;;;19.03;17.13;;;;;;;;;;5230914;28;20084;-76
2023/04/23 03:52:47;;;;;;;20.93;17.20;;;;;;;;;;5229850;28;20022;-76
2023/04/23 03:55:19;;;;;;;20.20;18.20;;;;;;;;;;5229902;28;20028;-76
2023/04/23 03:57:50;;;;;;;19.30;17.40;;;;;;;;;;5230760;28;20124;-76
2023/04/23 04:00:22;;;;;;;18.60;16.70;;;;;;;;;;5228656;28;20144;-76
2023/04/23 04:02:53;;;;;;;19.13;17.13;;;;;;;;;;5231040;28;20060;-75
2023/04/23 04:05:25;;;;;;;18.30;16.53;;;;;;;;;;5229296;28;20033;-75
2023/04/23 04:07:56;;;;;;;20.67;16.37;;;;;;;;;;5230373;28;20149;-75
2023/04/23 04:10:28;;;;;;;18.07;16.30;;;;;;;;;;5229127;28;20610;-76
2023/04/23 04:13:00;;;;;;;18.17;16.33;;;;;;;;;;5230456;28;20040;-75
2023/04/23 04:15:31;;;;;;;19.43;17.43;;;;;;;;;;5230258;28;20060;-75
2023/04/23 04:18:03;;;;;;;20.10;16.90;;;;;;;;;;5229196;28;20033;-75
2023/04/23 04:20:34;;;;;;;18.77;16.73;;;;;;;;;;5229979;28;20026;-75
2023/04/23 04:23:05;;;;;;;17.73;15.97;;;;;;;;;;5230705;28;20029;-75
2023/04/23 04:25:38;;;;;;;20.93;16.17;;;;;;;;;;5228766;28;20018;-76
2023/04/23 04:28:10;;;;;;;17.00;15.27;;;;;;;;;;5229488;28;20028;-76
2023/04/23 04:30:42;;;;;;;17.97;15.30;;;;;;;;;;5230894;28;20030;-76
2023/04/23 04:33:14;;;;;;;16.93;15.17;;;;;;;;;;5228697;28;20021;-75
2023/04/23 04:35:47;;;;;;;18.10;15.83;;;;;;;;;;5230650;28;20021;-75
2023/04/23 04:38:18;;;;;;;18.23;16.43;;;;;;;;;;5229766;28;20036;-76
2023/04/23 04:40:50;;;;;;;16.30;14.60;;;;;;;;;;5230050;28;20021;-76
2023/04/23 04:43:21;;;;;;;17.73;15.83;;;;;;;;;;5228909;28;20053;-75
2023/04/23 04:45:52;;;;;;;17.27;15.40;;;;;;;;;;5229172;28;20021;-77
2023/04/23 04:48:24;;;;;;;19.03;15.53;;;;;;;;;;5230064;28;20014;-77
2023/04/23 04:50:55;;;;;;;19.67;16.27;;;;;;;;;;5229987;28;20026;-78
2023/04/23 04:53:26;;;;;;;17.80;16.00;;;;;;;;;;5230243;28;20022;-78
2023/04/23 04:55:58;;;;;;;18.10;16.20;;;;;;;;;;5229736;28;20457;-77
2023/04/23 04:58:29;;;;;;;21.37;16.60;;;;;;;;;;5229372;28;20022;-77
2023/04/23 05:01:00;;;;;;;17.83;15.80;;;;;;;;;;5230312;28;20187;-77
2023/04/23 05:03:31;;;;;;;17.97;16.07;;;;;;;;;;5229917;28;20481;-77
2023/04/23 05:06:03;;;;;;;16.97;15.13;;;;;;;;;;5228370;28;20018;-77
2023/04/23 05:08:34;;;;;;;16.20;14.70;;;;;;;;;;5229873;28;20033;-77
2023/04/23 05:11:05;;;;;;;16.63;14.93;;;;;;;;;;5229005;28;20018;-77
2023/04/23 05:13:36;;;;;;;16.93;15.23;;;;;;;;;;5229667;28;20033;-76
2023/04/23 05:16:08;;;;;;;17.50;15.43;;;;;;;;;;5229971;28;20028;-76
2023/04/23 05:18:40;;;;;;;18.33;16.40;;;;;;;;;;5229286;28;20052;-77
2023/04/23 05:21:11;;;;;;;16.57;15.03;;;;;;;;;;5229708;28;20028;-78
2023/04/23 05:23:42;;;;;;;17.90;16.10;;;;;;;;;;5229876;28;20064;-77
2023/04/23 05:26:14;;;;;;;16.93;15.23;;;;;;;;;;5228443;28;20396;-76
2023/04/23 05:28:45;;;;;;;16.70;14.07;;;;;;;;;;5230197;28;20553;-77
2023/04/23 05:31:16;;;;;;;17.50;15.70;;;;;;;;;;5227997;28;20028;-76
2023/04/23 05:33:47;;;;;;;17.50;15.43;;;;;;;;;;5230129;28;20047;-77
2023/04/23 05:36:19;;;;;;;17.87;15.97;;;;;;;;;;5229535;28;20021;-75
2023/04/23 05:38:50;;;;;;;17.47;15.03;;;;;;;;;;5229619;28;20061;-76
2023/04/23 05:41:21;;;;;;;16.23;14.53;;;;;;;;;;5226824;28;20075;-76
2023/04/23 05:43:52;;;;;;;16.47;14.80;;;;;;;;;;5229765;28;20104;-76
2023/04/23 05:46:23;;;;;;;17.23;14.03;;;;;;;;;;5229265;28;20094;-75
2023/04/23 05:48:55;;;;;;;16.33;14.63;;;;;;;;;;5229263;28;20057;-76
2023/04/23 05:51:26;;;;;;;15.83;14.30;;;;;;;;;;5228774;28;20115;-76
2023/04/23 05:53:57;;;;;;;18.10;14.60;;;;;;;;;;5229594;28;20108;-76
2023/04/23 05:56:28;;;;;;;16.77;15.07;;;;;;;;;;5231203;28;20469;-76
2023/04/23 05:59:00;;;;;;;16.97;15.10;;;;;;;;;;5232858;28;20018;-76
2023/04/23 06:01:31;;;;;;;15.93;14.23;;;;;;;;;;5232592;28;20028;-76
2023/04/23 06:04:02;;;;;;;17.30;14.93;;;;;;;;;;5232499;28;20036;-76
2023/04/23 06:06:34;;;;;;;16.43;13.93;;;;;;;;;;5232775;28;20017;-76
2023/04/23 06:09:05;;;;;;;17.03;15.20;;;;;;;;;;5232836;28;20049;-76
2023/04/23 06:11:37;;;;;;;19.60;13.27;;;;;;;;;;5231273;28;20098;-76
2023/04/23 06:14:09;;;;;;;14.10;12.70;;;;;;;;;;5232735;28;20065;-77
2023/04/23 06:16:41;;;;;;;16.07;14.37;;;;;;;;;;5231506;28;20155;-76
2023/04/23 06:19:12;;;;;;;15.13;13.53;;;;;;;;;;5232141;28;20104;-76
2023/04/23 06:21:43;;;;;;;15.73;14.13;;;;;;;;;;5232207;28;20025;-76
2023/04/23 06:24:14;;;;;;;17.57;14.00;;;;;;;;;;5227810;28;20477;-76
2023/04/23 06:26:46;;;;;;;15.73;13.97;;;;;;;;;;5221903;28;20037;-76
2023/04/23 06:29:17;;;;;;;15.50;13.87;;;;;;;;;;5232607;28;20025;-76
2023/04/23 06:31:48;;;;;;;19.30;13.97;;;;;;;;;;5232085;28;20109;-76
2023/04/23 06:34:19;;;;;;;19.40;14.00;;;;;;;;;;5232143;28;20024;-76
2023/04/23 06:36:51;;;;;;;13.93;12.13;;;;;;;;;;5232294;28;20025;-77
2023/04/23 06:39:22;;;;;;;13.93;11.13;;;;;;;;;;5232004;28;20026;-77
2023/04/23 06:41:53;;;;;;;14.20;11.60;;;;;;;;;;5230148;28;20453;-77
2023/04/23 06:44:24;;;;;;;13.63;12.20;;;;;;;;;;5230774;28;20529;-77
2023/04/23 06:46:55;;;;;;;13.90;10.47;;;;;;;;;;5232200;28;20130;-77
2023/04/23 06:49:27;;;;;;;13.07;11.00;;;;;;;;;;5231739;28;20025;-77
2023/04/23 06:51:58;;;;;;;21.43;12.27;;;;;;;;;;5224894;28;20138;-77
2023/04/23 06:54:29;;;;;;;15.20;10.90;;;;;;;;;;5221422;28;20029;-77
2023/04/23 06:57:01;;;;;;;13.13;10.30;;;;;;;;;;5211230;28;20499;-77
2023/04/23 06:59:32;;;;;;;10.60;9.07;;;;;;;;;;5211026;28;20033;-77
2023/04/23 07:02:03;;;;;;;12.93;10.40;;;;;;;;;;5227467;28;20026;-78
2023/04/23 07:04:35;;;;;;;16.07;9.80;;;;;;;;;;5230451;27;20485;-78
2023/04/23 07:07:06;;;;;;;12.73;9.13;;;;;;;;;;5230470;28;20025;-78
2023/04/23 07:09:37;;;;;;;12.23;8.00;;;;;;;;;;5230340;28;20386;-77
2023/04/23 07:12:09;;;;;;;13.33;8.73;;;;;;;;;;5231119;28;20033;-77
2023/04/23 07:14:40;;;;;;;10.80;7.63;;;;;;;;;;5231339;28;20029;-76
2023/04/23 07:17:11;;;;;;;12.50;8.03;;;;;;;;;;5229858;28;20030;-76
2023/04/23 07:19:43;;;;;;;13.03;7.70;;;;;;;;;;5230557;28;20070;-76
2023/04/23 07:22:14;;;;;;;11.40;6.93;;;;;;;;;;5229681;28;20025;-76
2023/04/23 07:24:45;;;;;;;10.17;7.10;;;;;;;;;;5230462;28;20010;-76
2023/04/23 07:27:17;;;;;;;12.30;6.77;;;;;;;;;;5230294;28;20022;-76
2023/04/23 07:29:48;;;;;;;10.53;6.23;;;;;;;;;;5230501;28;20064;-76
2023/04/23 07:32:22;;;;;;;13.20;7.03;;;;;;;;;;5230609;28;20041;-76
2023/04/23 07:34:54;;;;;;;11.35;5.38;;;;;;;;;;5231335;28;20025;-75
2023/04/23 07:37:26;;;;;;;9.60;5.33;;;;;;;;;;5230818;28;20354;-76
2023/04/23 07:39:57;;;;;;;8.90;5.47;;;;;;;;;;5230286;28;20078;-74
2023/04/23 07:42:28;;;;;;;10.70;4.77;;;;;;;;;;5222962;27;20025;-75
2023/04/23 07:44:59;;;;;;;11.40;5.10;;;;;;;;;;5241606;27;20006;-75
2023/04/23 07:47:31;;;;;;;13.47;4.87;;;;;;;;;;5250000;27;20426;-75
2023/04/23 07:50:02;;;;;;;8.87;3.90;;;;;;;;;;5230083;28;20521;-74
2023/04/23 07:52:33;;;;;;;8.73;4.97;;;;;;;;;;5229986;28;20021;-74
2023/04/23 07:55:05;;;;;;;10.20;3.97;;;;;;;;;;5230102;28;20017;-75
2023/04/23 07:57:36;;;;;;;7.97;3.40;;;;;;;;;;5223215;27;20095;-75
2023/04/23 08:00:08;;;;;;;10.47;4.13;;;;;;;;;;5230864;28;20045;-75
2023/04/23 08:02:39;;;;;;;8.10;3.28;;;;;;;;;;5228955;28;20022;-75
2023/04/23 08:05:10;;;;;;;7.70;3.58;;;;;;;;;;5230713;28;20017;-75
2023/04/23 08:07:41;;;;;;;7.45;3.53;;;;;;;;;;5229852;28;20407;-75
2023/04/23 08:10:14;;;;;;;10.60;3.28;;;;;;;;;;5227791;28;20149;-76
2023/04/23 08:12:45;;;;;;;7.53;3.03;;;;;;;;;;5229152;28;20026;-76
2023/04/23 08:15:17;;;;;;;8.18;3.22;;;;;;;;;;5228649;28;20082;-76
2023/04/23 08:17:48;;;;;;;8.52;3.67;;;;;;;;;;5229994;28;20021;-77
2023/04/23 08:20:19;;;;;;;8.60;4.20;;;;;;;;;;5229488;28;20388;-77
2023/04/23 08:22:52;;;;;;;8.70;3.53;;;;;;;;;;5229130;28;20104;-77
2023/04/23 08:25:23;;;;;;;5.65;3.03;;;;;;;;;;5224529;28;20125;-77
2023/04/23 08:27:54;;;;;;;6.88;2.97;;;;;;;;;;5229700;28;20025;-77
2023/04/23 08:30:26;;;;;;;10.63;2.83;;;;;;;;;;5225101;28;20031;-77
2023/04/23 08:32:57;;;;;;;6.25;2.47;;;;;;;;;;5227762;28;20021;-77
2023/04/23 08:35:28;;;;;;;7.30;2.75;;;;;;;;;;5226073;28;21182;-77
2023/04/23 08:38:00;;;;;;;7.15;2.38;;;;;;;;;;5229279;28;20021;-77
2023/04/23 08:40:31;;;;;;;8.40;2.95;;;;;;;;;;5224778;28;20033;-77
2023/04/23 08:43:10;;;;;;;8.20;2.80;;;;;;;;;;5229820;28;20100;-77
2023/04/23 08:45:43;;;;;;;5.68;2.55;;;;;;;;;;5229635;28;20207;-78
2023/04/23 08:48:17;;;;;;;8.00;2.80;;;;;;;;;;5230166;28;20021;-81
2023/04/23 08:50:48;;;;;;;9.98;3.03;;;;;;;;;;5229994;28;20767;-80
2023/04/23 08:53:21;;;;;;;13.90;2.78;;;;;;;;;;5230117;28;20037;-77
2023/04/23 08:55:55;;;;;;;6.95;2.53;;;;;;;;;;5209248;28;20672;-78
2023/04/23 08:58:26;;;;;;;9.23;2.33;;;;;;;;;;5311540;28;20374;-76
2023/04/23 09:00:58;;;;;;;12.27;3.33;;;;;;;;;;5209676;28;20083;-76
2023/04/23 09:03:29;;;;;;;9.88;2.92;;;;;;;;;;5209151;28;20034;-75
2023/04/23 09:06:01;;;;;;;7.45;2.10;;;;;;;;;;5210090;28;20033;-75
2023/04/23 09:08:32;;;;;;;6.38;2.22;;;;;;;;;;5218360;28;20659;-74
2023/04/23 09:11:04;;;;;;;8.60;2.15;;;;;;;;;;5227868;28;20480;-75
2023/04/23 09:13:35;;;;;;;7.07;2.38;;;;;;;;;;5226076;28;20029;-75
2023/04/23 09:16:07;;;;;;;9.30;2.00;;;;;;;;;;5209321;28;20097;-76
2023/04/23 09:18:38;;;;;;;5.78;2.22;;;;;;;;;;5208147;28;20048;-77
2023/04/23 09:21:10;;;;;;;7.82;2.22;;;;;;;;;;5229389;28;20097;-77
2023/04/23 09:23:42;;;;;;;8.45;2.33;;;;;;;;;;5230223;28;20017;-77
2023/04/23 09:26:18;;;;;;;8.20;2.30;;;;;;;;;;5226829;28;20025;-77
2023/04/23 09:28:52;;;;;;;6.38;2.13;;;;;;;;;;5228984;28;20022;-77
2023/04/23 09:31:24;;;;;;;8.57;2.00;;;;;;;;;;5233082;28;20021;-77
2023/04/23 09:33:55;;;;;;;6.88;2.60;;;;;;;;;;5233084;28;20055;-76
2023/04/23 09:36:27;;;;;;;6.90;2.20;;;;;;;;;;5232556;28;20013;-75
2023/04/23 09:38:58;;;;;;;6.60;1.80;;;;;;;;;;5252483;28;20028;-75
2023/04/23 09:41:30;;;;;;;7.07;1.88;;;;;;;;;;5233955;28;20054;-75
2023/04/23 09:44:01;;;;;;;6.85;2.17;;;;;;;;;;5211293;28;20065;-75
2023/04/23 09:46:36;;;;;;;5.97;1.85;;;;;;;;;;5221106;27;20033;-76
2023/04/23 09:49:09;;;;;;;11.07;2.42;;;;;;;;;;5231696;28;20104;-76
2023/04/23 09:51:42;;;;;;;5.90;1.52;;;;;;;;;;5232389;28;20705;-76
2023/04/23 09:54:15;;;;;;;7.53;2.60;;;;;;;;;;5229431;28;20405;-76
2023/04/23 09:56:55;;;;;;;8.10;2.53;;;;;;;;;;5231525;28;20025;-76
2023/04/23 09:59:27;;;;;;;6.32;2.20;;;;;;;;;;5231357;28;20501;-76
2023/04/23 10:02:00;;;;;;;4.90;1.60;;;;;;;;;;5231654;28;20111;-76
2023/04/23 10:04:32;;;;;;;8.07;2.30;;;;;;;;;;5230936;28;20029;-75
2023/04/23 10:07:07;;;;;;;6.68;2.10;;;;;;;;;;5232168;28;20028;-75
2023/04/23 10:09:40;;;;;;;8.52;2.78;;;;;;;;;;5231580;28;20981;-76
2023/04/23 10:12:12;;;;;;;6.93;2.10;;;;;;;;;;5232501;28;20372;-75
2023/04/23 10:14:45;;;;;;;6.90;2.25;;;;;;;;;;5231878;28;20045;-75
2023/04/23 10:17:16;;;;;;;5.68;1.75;;;;;;;;;;5232136;28;20488;-76
2023/04/23 10:19:48;;;;;;;7.47;2.00;;;;;;;;;;5232376;28;20106;-76
2023/04/23 10:22:20;;;;;;;7.10;2.42;;;;;;;;;;5232080;28;20135;-76
2023/04/23 10:24:54;;;;;;;5.57;2.22;;;;;;;;;;5230919;28;20112;-76
2023/04/23 10:27:27;;;;;;;10.40;2.05;;;;;;;;;;5230914;28;20103;-76
2023/04/23 10:29:59;;;;;;;5.55;1.90;;;;;;;;;;5232383;28;20080;-76
2023/04/23 10:32:32;;;;;;;5.68;1.65;;;;;;;;;;5230046;28;20053;-76
2023/04/23 10:35:04;;;;;;;7.45;1.85;;;;;;;;;;5230904;28;20028;-75
2023/04/23 10:37:35;;;;;;;7.43;2.08;;;;;;;;;;5229662;28;20018;-76
2023/04/23 10:40:10;;;;;;;7.97;2.20;;;;;;;;;;5230584;28;20021;-75
2023/04/23 10:42:45;;;;;;;8.52;2.20;;;;;;;;;;5231961;28;20740;-75
2023/04/23 10:45:17;;;;;;;6.57;2.08;;;;;;;;;;5232279;28;20064;-74
2023/04/23 10:47:48;;;;;;;5.03;1.70;;;;;;;;;;5231787;28;20053;-75
2023/04/23 10:50:27;;;;;;;5.88;1.60;;;;;;;;;;5231598;28;20029;-75
2023/04/23 10:52:58;;;;;;;3.85;1.55;;;;;;;;;;5231501;28;20377;-75
2023/04/23 10:55:30;;;;;;;8.75;1.60;;;;;;;;;;5219051;28;20024;-76
2023/04/23 10:58:02;;;;;;;13.82;2.05;;;;;;;;;;5210926;28;20501;-74
2023/04/23 11:00:39;;;;;;;8.40;2.85;;;;;;;;;;5210783;28;20030;-73
2023/04/23 11:03:30;;;;;;;6.40;2.05;;;;;;;;;;5225519;28;20025;-74
2023/04/23 11:06:03;;;;;;;5.53;1.52;;;;;;;;;;5226732;28;20510;-75
2023/04/23 11:08:34;;;;;;;6.70;1.92;;;;;;;;;;5230219;28;20030;-73
2023/04/23 11:11:07;;;;;;;6.55;2.20;;;;;;;;;;5228533;28;20110;-74
2023/04/23 11:13:49;;;;;;;7.88;1.85;;;;;;;;;;5317854;27;20078;-74
2023/04/23 11:16:21;;;;;;;8.73;1.77;;;;;;;;;;5210007;28;20045;-74
2023/04/23 11:19:11;;;;;;;5.25;1.88;;;;;;;;;;5210501;28;20026;-73
2023/04/23 11:21:54;;;;;;;5.93;2.65;;;;;;;;;;5210514;28;20022;-74
2023/04/23 11:24:26;;;;;;;6.87;1.73;;;;;;;;;;5209611;28;20026;-74
2023/04/23 11:26:58;;;;;;;3.72;1.27;;;;;;;;;;5210558;28;20609;-74
2023/04/23 11:29:29;;;;;;;4.50;1.85;;;;;;;;;;5210152;28;20032;-74
2023/04/23 11:32:00;;;;;;;5.80;1.20;;;;;;;;;;5208710;28;20084;-74
2023/04/23 11:34:32;;;;;;;6.03;1.38;;;;;;;;;;5209526;28;20070;-74
2023/04/23 11:37:03;;;;;;;3.35;1.20;;;;;;;;;;5226316;28;20037;-74
2023/04/23 11:39:35;;;;;;;3.45;1.20;;;;;;;;;;5229443;28;20018;-74
2023/04/23 11:42:12;;;;;;;2.80;0.85;;;;;;;;;;5230636;28;20017;-74
2023/04/23 11:44:44;;;;;;;3.75;1.17;;;;;;;;;;5229612;28;20417;-74
2023/04/23 11:47:17;;;;;;;4.28;1.00;;;;;;;;;;5225877;28;20030;-74
2023/04/23 11:49:48;;;;;;;4.78;1.50;;;;;;;;;;5227648;28;20477;-74
2023/04/23 11:52:21;;;;;;;5.80;1.90;;;;;;;;;;5228443;28;20021;-75
2023/04/23 11:54:52;;;;;;;5.17;1.80;;;;;;;;;;5230067;28;20586;-75
2023/04/23 11:57:23;;;;;;;6.07;1.50;;;;;;;;;;5228846;28;20063;-75
2023/04/23 11:59:54;;;;;;;7.73;2.10;;;;;;;;;;5230641;28;20044;-76
2023/04/23 12:02:27;;;;;;;5.53;2.37;;;;;;;;;;5229935;28;20103;-75
2023/04/23 12:05:03;;;;;;;7.23;1.87;;;;;;;;;;5231085;28;20053;-75
2023/04/23 12:07:34;;;;;;;7.07;1.77;;;;;;;;;;5229344;28;20048;-75
2023/04/23 12:10:06;;;;;;;3.40;1.23;;;;;;;;;;5228245;28;20052;-75
2023/04/23 12:12:37;;;;;;;6.95;2.08;;;;;;;;;;5230516;28;20033;-75
2023/04/23 12:15:08;;;;;;;3.78;1.48;;;;;;;;;;5235634;28;20630;-75
2023/04/23 12:17:39;;;;;;;4.70;1.30;;;;;;;;;;5228351;28;20376;-75
2023/04/23 12:20:15;;;;;;;5.10;1.40;;;;;;;;;;5229351;28;20182;-75
2023/04/23 12:22:47;;;;;;;6.38;1.83;;;;;;;;;;5229306;28;20022;-75
2023/04/23 12:25:21;;;;;;;4.82;1.40;;;;;;;;;;5224350;28;20025;-74
2023/04/23 12:27:58;;;;;;;7.00;1.23;;;;;;;;;;5217573;28;20112;-75
2023/04/23 12:30:30;;;;;;;5.78;1.98;;;;;;;;;;5224213;28;20551;-74
2023/04/23 12:33:02;;;;;;;3.97;1.25;;;;;;;;;;5228817;28;20026;-74
2023/04/23 12:35:42;;;;;;;5.47;1.30;;;;;;;;;;5227197;28;20033;-74
2023/04/23 12:38:22;;;;;;;6.37;1.33;;;;;;;;;;5223484;28;20114;-74
2023/04/23 12:40:54;;;;;;;6.27;1.40;;;;;;;;;;5222626;28;20022;-74
2023/04/23 12:43:25;;;;;;;3.80;1.58;;;;;;;;;;5217961;28;20033;-74
2023/04/23 12:45:57;;;;;;;4.90;1.20;;;;;;;;;;5218493;28;20026;-74
2023/04/23 12:48:28;;;;;;;6.70;1.70;;;;;;;;;;5226366;28;20045;-74
2023/04/23 12:50:59;;;;;;;3.78;1.17;;;;;;;;;;5219911;28;20376;-74
2023/04/23 12:53:31;;;;;;;8.17;2.57;;;;;;;;;;5222750;28;20318;-74
2023/04/23 12:56:02;;;;;;;5.60;1.70;;;;;;;;;;5219517;28;20144;-75
2023/04/23 12:58:33;;;;;;;6.07;1.87;;;;;;;;;;5218365;28;20025;-74
2023/04/23 13:01:04;;;;;;;7.27;1.83;;;;;;;;;;5218441;28;20022;-74
2023/04/23 13:03:35;;;;;;;4.73;1.47;;;;;;;;;;5217353;28;20032;-74
2023/04/23 13:06:07;;;;;;;3.43;1.30;;;;;;;;;;5221233;28;20590;-76
2023/04/23 13:08:38;;;;;;;3.10;1.10;;;;;;;;;;5224847;27;20025;-74
2023/04/23 13:11:10;;;;;;;4.47;1.30;;;;;;;;;;5230823;28;20076;-74
2023/04/23 13:13:41;;;;;;;4.85;1.60;;;;;;;;;;5228943;28;20114;-74
2023/04/23 13:16:12;;;;;;;4.70;1.33;;;;;;;;;;5222086;28;20020;-74
2023/04/23 13:18:43;;;;;;;6.63;1.63;;;;;;;;;;5231211;28;20033;-74
2023/04/23 13:21:15;;;;;;;5.83;1.33;;;;;;;;;;5223023;28;20124;-74
2023/04/23 13:23:46;;;;;;;5.93;1.80;;;;;;;;;;5232804;28;20835;-74
2023/04/23 13:26:18;;;;;;;4.97;1.30;;;;;;;;;;5221514;28;20033;-74
2023/04/23 13:28:49;;;;;;;5.53;1.50;;;;;;;;;;5223139;28;20210;-74
2023/04/23 13:31:20;;;;;;;6.13;1.23;;;;;;;;;;5243315;28;20009;-75
2023/04/23 13:33:51;;;;;;;6.30;2.27;;;;;;;;;;5228011;28;20148;-74
2023/04/23 13:36:23;;;;;;;4.73;1.10;;;;;;;;;;5220208;28;20026;-74
2023/04/23 13:38:54;;;;;;;5.90;1.53;;;;;;;;;;5225119;28;20010;-74
2023/04/23 13:41:25;;;;;;;3.97;1.50;;;;;;;;;;5221532;28;20045;-73
2023/04/23 13:43:56;;;;;;;5.53;1.33;;;;;;;;;;5220633;27;20041;-73
2023/04/23 13:46:28;;;;;;;6.57;1.57;;;;;;;;;;5228369;27;20022;-74
2023/04/23 13:49:00;;;;;;;6.07;1.40;;;;;;;;;;5220268;28;20036;-74
2023/04/23 13:51:31;;;;;;;4.83;1.20;;;;;;;;;;5225739;28;20057;-74
2023/04/23 13:54:02;;;;;;;3.57;1.17;;;;;;;;;;5220493;28;20158;-74
2023/04/23 13:56:33;;;;;;;4.90;1.60;;;;;;;;;;5221312;28;20022;-74
2023/04/23 13:59:05;;;;;;;6.17;1.80;;;;;;;;;;5221912;28;20418;-74
2023/04/23 14:01:36;;;;;;;4.60;1.43;;;;;;;;;;5221336;28;20057;-75
2023/04/23 14:04:07;;;;;;;5.53;1.53;;;;;;;;;;5221727;28;20524;-74
2023/04/23 14:06:38;;;;;;;7.97;1.90;;;;;;;;;;5221220;28;20061;-73
2023/04/23 14:09:10;;;;;;;6.00;1.67;;;;;;;;;;5220017;28;20057;-74
2023/04/23 14:11:41;;;;;;;8.70;2.07;;;;;;;;;;5220914;28;20036;-74
2023/04/23 14:14:12;;;;;;;6.73;1.73;;;;;;;;;;5233114;28;20033;-73
2023/04/23 14:16:44;;;;;;;7.27;2.40;;;;;;;;;;5219190;28;20021;-73
2023/04/23 14:19:15;;;;;;;5.80;1.70;;;;;;;;;;5222523;28;20022;-74
2023/04/23 14:21:50;;;;;;;8.60;2.67;;;;;;;;;;5227422;28;20021;-73
2023/04/23 14:24:23;;;;;;;8.00;2.43;;;;;;;;;;5219073;28;20045;-74
2023/04/23 14:26:54;;;;;;;5.80;1.95;;;;;;;;;;5221595;28;20057;-74
2023/04/23 14:29:33;;;;;;;4.93;2.03;;;;;;;;;;5231344;28;20121;-74
2023/04/23 14:32:05;;;;;;;6.50;2.00;;;;;;;;;;5221335;28;20034;-74
2023/04/23 14:34:38;;;;;;;8.13;2.50;;;;;;;;;;5236504;28;20672;-75
2023/04/23 14:37:10;;;;;;;8.90;2.60;;;;;;;;;;5222873;28;20082;-75
2023/04/23 14:39:41;;;;;;;11.10;1.87;;;;;;;;;;5219185;28;20192;-75
2023/04/23 14:42:12;;;;;;;7.70;2.40;;;;;;;;;;5222977;28;20369;-75
2023/04/23 14:44:43;;;;;;;8.37;2.40;;;;;;;;;;5220959;28;20029;-75
2023/04/23 14:47:14;;;;;;;5.87;1.80;;;;;;;;;;5220475;28;20029;-76
2023/04/23 14:49:46;;;;;;;6.73;1.80;;;;;;;;;;5218947;28;21342;-76
2023/04/23 14:52:17;;;;;;;5.30;1.93;;;;;;;;;;5219564;28;20029;-76
2023/04/23 14:54:48;;;;;;;5.57;2.00;;;;;;;;;;5216855;28;20148;-76